sensor_id;sensor_type;location;lat;lon;timestamp;temperature;humidity
23435;DHT22;11890;45.380;11.028;2022-08-27T00:01:53;27.20;99.90
23435;DHT22;11890;45.380;11.028;2022-08-27T00:04:20;27.20;99.90
23435;DHT22;11890;45.380;11.028;2022-08-27T00:06:48;27.10;99.90
23435;DHT22;11890;45.380;11.028;2022-08-27T00:09:16;27.10;99.90
23435;DHT22;11890;45.380;11.028;2022-08-27T00:11:54;27.10;99.90
23435;DHT22;11890;45.380;11.028;2022-08-27T00:14:23;27.10;99.90
23435;DHT22;11890;45.380;11.028;2022-08-27T00:16:50;27.10;99.90
23435;DHT22;11890;45.380;11.028;2022-08-27T00:19:18;27.00;99.90
23435;DHT22;11890;45.380;11.028;2022-08-27T00:21:45;27.00;99.90
23435;DHT22;11890;45.380;11.028;2022-08-27T00:24:13;27.00;99.90
23435;DHT22;11890;45.380;11.028;2022-08-27T00:26:40;26.90;99.90
23435;DHT22;11890;45.380;11.028;2022-08-27T00:29:09;26.90;99.90
23435;DHT22;11890;45.380;11.028;2022-08-27T00:31:37;26.90;99.90
23435;DHT22;11890;45.380;11.028;2022-08-27T00:34:04;26.90;99.90
23435;DHT22;11890;45.380;11.028;2022-08-27T00:36:33;26.90;99.90
23435;DHT22;11890;45.380;11.028;2022-08-27T00:39:01;26.90;99.90
23435;DHT22;11890;45.380;11.028;2022-08-27T00:41:29;26.90;99.90
23435;DHT22;11890;45.380;11.028;2022-08-27T00:43:58;26.90;99.90
23435;DHT22;11890;45.380;11.028;2022-08-27T00:46:48;26.80;99.90
23435;DHT22;11890;45.380;11.028;2022-08-27T00:49:23;26.80;99.90
23435;DHT22;11890;45.380;11.028;2022-08-27T00:52:28;26.80;99.90
23435;DHT22;11890;45.380;11.028;2022-08-27T00:54:48;26.80;99.90
23435;DHT22;11890;45.380;11.028;2022-08-27T00:57:18;26.80;99.90
23435;DHT22;11890;45.380;11.028;2022-08-27T00:59:45;26.80;99.90
23435;DHT22;11890;45.380;11.028;2022-08-27T01:02:13;26.70;99.90
23435;DHT22;11890;45.380;11.028;2022-08-27T01:04:55;26.70;99.90
23435;DHT22;11890;45.380;11.028;2022-08-27T01:07:26;26.70;99.90
23435;DHT22;11890;45.380;11.028;2022-08-27T01:09:56;26.60;99.90
23435;DHT22;11890;45.380;11.028;2022-08-27T01:12:26;26.60;99.90
23435;DHT22;11890;45.380;11.028;2022-08-27T01:14:54;26.70;99.90
23435;DHT22;11890;45.380;11.028;2022-08-27T01:17:23;26.60;99.90
23435;DHT22;11890;45.380;11.028;2022-08-27T01:19:54;26.60;99.90
23435;DHT22;11890;45.380;11.028;2022-08-27T01:25:15;26.40;99.90
23435;DHT22;11890;45.380;11.028;2022-08-27T01:27:44;26.40;99.90
23435;DHT22;11890;45.380;11.028;2022-08-27T01:30:15;26.40;99.90
23435;DHT22;11890;45.380;11.028;2022-08-27T01:32:44;26.40;99.90
23435;DHT22;11890;45.380;11.028;2022-08-27T01:35:13;26.40;99.90
23435;DHT22;11890;45.380;11.028;2022-08-27T01:37:41;26.30;99.90
23435;DHT22;11890;45.380;11.028;2022-08-27T01:40:10;26.30;99.90
23435;DHT22;11890;45.380;11.028;2022-08-27T01:42:48;26.30;99.90
23435;DHT22;11890;45.380;11.028;2022-08-27T01:45:28;26.30;99.90
23435;DHT22;11890;45.380;11.028;2022-08-27T01:47:57;26.30;99.90
23435;DHT22;11890;45.380;11.028;2022-08-27T01:50:29;26.30;99.90
23435;DHT22;11890;45.380;11.028;2022-08-27T01:53:05;26.30;99.90
23435;DHT22;11890;45.380;11.028;2022-08-27T01:55:33;26.30;99.90
23435;DHT22;11890;45.380;11.028;2022-08-27T01:58:00;26.30;99.90
23435;DHT22;11890;45.380;11.028;2022-08-27T02:00:31;26.30;99.90
23435;DHT22;11890;45.380;11.028;2022-08-27T02:02:59;26.30;99.90
23435;DHT22;11890;45.380;11.028;2022-08-27T02:05:27;26.20;99.90
23435;DHT22;11890;45.380;11.028;2022-08-27T02:07:55;26.20;99.90
23435;DHT22;11890;45.380;11.028;2022-08-27T02:10:31;26.20;99.90
23435;DHT22;11890;45.380;11.028;2022-08-27T02:12:59;26.20;99.90
23435;DHT22;11890;45.380;11.028;2022-08-27T02:15:27;26.20;99.90
23435;DHT22;11890;45.380;11.028;2022-08-27T02:17:55;26.10;99.90
23435;DHT22;11890;45.380;11.028;2022-08-27T02:20:22;26.20;99.90
23435;DHT22;11890;45.380;11.028;2022-08-27T02:22:54;26.20;99.90
23435;DHT22;11890;45.380;11.028;2022-08-27T02:25:22;26.20;99.90
23435;DHT22;11890;45.380;11.028;2022-08-27T02:27:49;26.20;99.90
23435;DHT22;11890;45.380;11.028;2022-08-27T02:30:20;26.20;99.90
23435;DHT22;11890;45.380;11.028;2022-08-27T02:32:49;26.20;99.90
23435;DHT22;11890;45.380;11.028;2022-08-27T02:35:21;26.20;99.90
23435;DHT22;11890;45.380;11.028;2022-08-27T02:37:50;26.20;99.90
23435;DHT22;11890;45.380;11.028;2022-08-27T02:40:20;26.20;99.90
23435;DHT22;11890;45.380;11.028;2022-08-27T02:42:48;26.20;99.90
23435;DHT22;11890;45.380;11.028;2022-08-27T02:45:17;26.20;99.90
23435;DHT22;11890;45.380;11.028;2022-08-27T02:47:44;26.20;99.90
23435;DHT22;11890;45.380;11.028;2022-08-27T02:50:12;26.20;99.90
23435;DHT22;11890;45.380;11.028;2022-08-27T02:52:40;26.20;99.90
23435;DHT22;11890;45.380;11.028;2022-08-27T02:55:08;26.20;99.90
23435;DHT22;11890;45.380;11.028;2022-08-27T02:57:36;26.30;99.90
23435;DHT22;11890;45.380;11.028;2022-08-27T03:00:06;26.20;99.90
23435;DHT22;11890;45.380;11.028;2022-08-27T03:02:35;26.20;99.90
23435;DHT22;11890;45.380;11.028;2022-08-27T03:05:04;26.20;99.90
23435;DHT22;11890;45.380;11.028;2022-08-27T03:07:35;26.20;99.90
23435;DHT22;11890;45.380;11.028;2022-08-27T03:10:04;26.20;99.90
23435;DHT22;11890;45.380;11.028;2022-08-27T03:12:33;26.20;99.90
23435;DHT22;11890;45.380;11.028;2022-08-27T03:15:07;26.30;99.90
23435;DHT22;11890;45.380;11.028;2022-08-27T03:17:35;26.20;99.90
23435;DHT22;11890;45.380;11.028;2022-08-27T03:20:22;26.30;99.90
23435;DHT22;11890;45.380;11.028;2022-08-27T03:22:50;26.30;99.90
23435;DHT22;11890;45.380;11.028;2022-08-27T03:25:18;26.30;99.90
23435;DHT22;11890;45.380;11.028;2022-08-27T03:27:46;26.20;99.90
23435;DHT22;11890;45.380;11.028;2022-08-27T03:30:16;26.30;99.90
23435;DHT22;11890;45.380;11.028;2022-08-27T03:32:44;26.30;99.90
23435;DHT22;11890;45.380;11.028;2022-08-27T03:35:13;26.30;99.90
23435;DHT22;11890;45.380;11.028;2022-08-27T03:37:40;26.30;99.90
23435;DHT22;11890;45.380;11.028;2022-08-27T03:40:08;26.30;99.90
23435;DHT22;11890;45.380;11.028;2022-08-27T03:42:36;26.30;99.90
23435;DHT22;11890;45.380;11.028;2022-08-27T03:45:06;26.30;99.90
23435;DHT22;11890;45.380;11.028;2022-08-27T03:47:35;26.30;99.90
23435;DHT22;11890;45.380;11.028;2022-08-27T03:50:04;26.30;99.90
23435;DHT22;11890;45.380;11.028;2022-08-27T03:52:32;26.30;99.90
23435;DHT22;11890;45.380;11.028;2022-08-27T03:55:01;26.30;99.90
23435;DHT22;11890;45.380;11.028;2022-08-27T03:57:29;26.30;99.90
23435;DHT22;11890;45.380;11.028;2022-08-27T03:59:57;26.40;99.90
23435;DHT22;11890;45.380;11.028;2022-08-27T04:02:24;26.30;99.90
23435;DHT22;11890;45.380;11.028;2022-08-27T04:04:52;26.40;99.90
23435;DHT22;11890;45.380;11.028;2022-08-27T04:07:19;26.40;99.90
23435;DHT22;11890;45.380;11.028;2022-08-27T04:09:47;26.30;99.90
23435;DHT22;11890;45.380;11.028;2022-08-27T04:12:14;26.30;99.90
23435;DHT22;11890;45.380;11.028;2022-08-27T04:14:42;26.30;99.90
23435;DHT22;11890;45.380;11.028;2022-08-27T04:17:09;26.30;99.90
23435;DHT22;11890;45.380;11.028;2022-08-27T04:19:37;26.20;99.90
23435;DHT22;11890;45.380;11.028;2022-08-27T04:22:06;26.20;99.90
23435;DHT22;11890;45.380;11.028;2022-08-27T04:24:35;26.20;99.90
23435;DHT22;11890;45.380;11.028;2022-08-27T04:27:04;26.10;99.90
23435;DHT22;11890;45.380;11.028;2022-08-27T04:29:32;26.10;99.90
23435;DHT22;11890;45.380;11.028;2022-08-27T04:32:00;26.10;99.90
23435;DHT22;11890;45.380;11.028;2022-08-27T04:34:28;26.10;99.90
23435;DHT22;11890;45.380;11.028;2022-08-27T04:36:56;26.10;99.90
23435;DHT22;11890;45.380;11.028;2022-08-27T04:39:25;26.10;99.90
23435;DHT22;11890;45.380;11.028;2022-08-27T04:41:55;26.10;99.90
23435;DHT22;11890;45.380;11.028;2022-08-27T04:44:25;26.20;99.90
23435;DHT22;11890;45.380;11.028;2022-08-27T04:47:00;26.20;99.90
23435;DHT22;11890;45.380;11.028;2022-08-27T04:49:28;26.20;99.90
23435;DHT22;11890;45.380;11.028;2022-08-27T04:51:58;26.20;99.90
23435;DHT22;11890;45.380;11.028;2022-08-27T04:54:25;26.20;99.90
23435;DHT22;11890;45.380;11.028;2022-08-27T04:57:01;26.20;99.90
23435;DHT22;11890;45.380;11.028;2022-08-27T04:59:30;26.20;99.90
23435;DHT22;11890;45.380;11.028;2022-08-27T05:01:59;26.30;99.90
23435;DHT22;11890;45.380;11.028;2022-08-27T05:04:31;26.30;99.90
23435;DHT22;11890;45.380;11.028;2022-08-27T05:07:00;26.30;99.90
23435;DHT22;11890;45.380;11.028;2022-08-27T05:09:28;26.30;99.90
23435;DHT22;11890;45.380;11.028;2022-08-27T05:11:56;26.30;99.90
23435;DHT22;11890;45.380;11.028;2022-08-27T05:14:23;26.20;99.90
23435;DHT22;11890;45.380;11.028;2022-08-27T05:16:57;26.20;99.90
23435;DHT22;11890;45.380;11.028;2022-08-27T05:19:25;26.20;99.90
23435;DHT22;11890;45.380;11.028;2022-08-27T05:21:53;26.10;99.90
23435;DHT22;11890;45.380;11.028;2022-08-27T05:24:21;26.10;99.90
23435;DHT22;11890;45.380;11.028;2022-08-27T05:26:49;26.10;99.90
23435;DHT22;11890;45.380;11.028;2022-08-27T05:29:17;26.10;99.90
23435;DHT22;11890;45.380;11.028;2022-08-27T05:31:44;26.10;99.90
23435;DHT22;11890;45.380;11.028;2022-08-27T05:34:14;26.20;99.90
23435;DHT22;11890;45.380;11.028;2022-08-27T05:36:48;26.20;99.90
23435;DHT22;11890;45.380;11.028;2022-08-27T05:39:16;26.20;99.90
23435;DHT22;11890;45.380;11.028;2022-08-27T05:41:43;26.20;99.90
23435;DHT22;11890;45.380;11.028;2022-08-27T05:44:11;26.20;99.90
23435;DHT22;11890;45.380;11.028;2022-08-27T05:46:58;26.20;99.90
23435;DHT22;11890;45.380;11.028;2022-08-27T05:49:25;26.30;99.90
23435;DHT22;11890;45.380;11.028;2022-08-27T05:51:53;26.40;99.90
23435;DHT22;11890;45.380;11.028;2022-08-27T05:54:21;26.50;99.90
23435;DHT22;11890;45.380;11.028;2022-08-27T05:56:48;26.50;99.90
23435;DHT22;11890;45.380;11.028;2022-08-27T05:59:17;26.60;99.90
23435;DHT22;11890;45.380;11.028;2022-08-27T06:02:04;26.60;99.90
23435;DHT22;11890;45.380;11.028;2022-08-27T06:04:33;26.70;99.90
23435;DHT22;11890;45.380;11.028;2022-08-27T06:07:01;26.80;99.90
23435;DHT22;11890;45.380;11.028;2022-08-27T06:09:29;26.80;99.90
23435;DHT22;11890;45.380;11.028;2022-08-27T06:11:58;26.90;99.90
23435;DHT22;11890;45.380;11.028;2022-08-27T06:14:26;27.00;99.90
23435;DHT22;11890;45.380;11.028;2022-08-27T06:16:54;27.10;99.90
23435;DHT22;11890;45.380;11.028;2022-08-27T06:19:22;27.20;99.90
23435;DHT22;11890;45.380;11.028;2022-08-27T06:21:50;27.20;99.90
23435;DHT22;11890;45.380;11.028;2022-08-27T06:24:38;27.30;99.90
23435;DHT22;11890;45.380;11.028;2022-08-27T06:27:09;27.40;99.90
23435;DHT22;11890;45.380;11.028;2022-08-27T06:29:38;27.50;99.90
23435;DHT22;11890;45.380;11.028;2022-08-27T06:32:06;27.60;99.90
23435;DHT22;11890;45.380;11.028;2022-08-27T06:34:34;27.70;99.90
23435;DHT22;11890;45.380;11.028;2022-08-27T06:37:02;27.80;99.90
23435;DHT22;11890;45.380;11.028;2022-08-27T06:39:29;27.90;99.90
23435;DHT22;11890;45.380;11.028;2022-08-27T06:41:58;27.90;99.90
23435;DHT22;11890;45.380;11.028;2022-08-27T06:44:30;27.90;99.90
23435;DHT22;11890;45.380;11.028;2022-08-27T06:46:58;27.80;99.90
23435;DHT22;11890;45.380;11.028;2022-08-27T06:49:25;27.90;99.90
23435;DHT22;11890;45.380;11.028;2022-08-27T06:51:53;27.90;99.90
23435;DHT22;11890;45.380;11.028;2022-08-27T06:54:21;27.90;99.90
23435;DHT22;11890;45.380;11.028;2022-08-27T06:56:48;27.90;99.90
23435;DHT22;11890;45.380;11.028;2022-08-27T06:59:19;27.90;99.90
23435;DHT22;11890;45.380;11.028;2022-08-27T07:01:48;27.90;99.90
23435;DHT22;11890;45.380;11.028;2022-08-27T07:04:21;27.90;99.90
23435;DHT22;11890;45.380;11.028;2022-08-27T07:06:56;28.00;99.90
23435;DHT22;11890;45.380;11.028;2022-08-27T07:09:24;28.00;99.90
23435;DHT22;11890;45.380;11.028;2022-08-27T07:11:51;28.00;99.90
23435;DHT22;11890;45.380;11.028;2022-08-27T07:14:19;27.90;99.90
23435;DHT22;11890;45.380;11.028;2022-08-27T07:16:46;27.90;99.90
23435;DHT22;11890;45.380;11.028;2022-08-27T07:19:17;27.80;99.90
23435;DHT22;11890;45.380;11.028;2022-08-27T07:21:44;27.60;99.90
23435;DHT22;11890;45.380;11.028;2022-08-27T07:24:12;27.50;99.90
23435;DHT22;11890;45.380;11.028;2022-08-27T07:26:42;27.40;99.90
23435;DHT22;11890;45.380;11.028;2022-08-27T07:29:12;27.30;99.90
23435;DHT22;11890;45.380;11.028;2022-08-27T07:31:41;27.30;99.90
23435;DHT22;11890;45.380;11.028;2022-08-27T07:34:09;27.40;99.90
23435;DHT22;11890;45.380;11.028;2022-08-27T07:36:37;27.50;99.90
23435;DHT22;11890;45.380;11.028;2022-08-27T07:39:06;27.60;99.90
23435;DHT22;11890;45.380;11.028;2022-08-27T07:41:34;27.80;99.90
23435;DHT22;11890;45.380;11.028;2022-08-27T07:44:25;27.90;99.90
23435;DHT22;11890;45.380;11.028;2022-08-27T07:47:01;28.00;99.90
23435;DHT22;11890;45.380;11.028;2022-08-27T07:49:29;28.00;99.90
23435;DHT22;11890;45.380;11.028;2022-08-27T07:51:58;28.00;99.90
23435;DHT22;11890;45.380;11.028;2022-08-27T07:54:25;28.20;99.90
23435;DHT22;11890;45.380;11.028;2022-08-27T07:56:53;28.40;99.90
23435;DHT22;11890;45.380;11.028;2022-08-27T07:59:23;28.20;99.90
23435;DHT22;11890;45.380;11.028;2022-08-27T08:01:53;28.40;99.90
23435;DHT22;11890;45.380;11.028;2022-08-27T08:04:21;28.50;99.90
23435;DHT22;11890;45.380;11.028;2022-08-27T08:06:49;28.60;99.90
23435;DHT22;11890;45.380;11.028;2022-08-27T08:09:17;28.80;99.90
23435;DHT22;11890;45.380;11.028;2022-08-27T08:11:45;29.00;99.90
23435;DHT22;11890;45.380;11.028;2022-08-27T08:14:12;29.20;99.90
23435;DHT22;11890;45.380;11.028;2022-08-27T08:16:40;29.30;99.90
23435;DHT22;11890;45.380;11.028;2022-08-27T08:19:07;29.40;99.90
23435;DHT22;11890;45.380;11.028;2022-08-27T08:21:36;29.50;99.90
23435;DHT22;11890;45.380;11.028;2022-08-27T08:24:04;29.50;99.90
23435;DHT22;11890;45.380;11.028;2022-08-27T08:26:32;29.60;99.90
23435;DHT22;11890;45.380;11.028;2022-08-27T08:29:00;29.60;99.90
23435;DHT22;11890;45.380;11.028;2022-08-27T08:31:31;29.60;99.90
23435;DHT22;11890;45.380;11.028;2022-08-27T08:33:59;29.60;99.90
23435;DHT22;11890;45.380;11.028;2022-08-27T08:36:26;29.60;99.90
23435;DHT22;11890;45.380;11.028;2022-08-27T08:38:54;29.50;99.90
23435;DHT22;11890;45.380;11.028;2022-08-27T08:43:49;29.30;99.90
23435;DHT22;11890;45.380;11.028;2022-08-27T08:46:29;29.20;99.90
23435;DHT22;11890;45.380;11.028;2022-08-27T08:49:12;29.20;99.90
23435;DHT22;11890;45.380;11.028;2022-08-27T08:51:45;29.10;99.90
23435;DHT22;11890;45.380;11.028;2022-08-27T08:54:15;29.00;99.90
23435;DHT22;11890;45.380;11.028;2022-08-27T08:56:56;28.80;99.90
23435;DHT22;11890;45.380;11.028;2022-08-27T08:59:34;28.70;99.90
23435;DHT22;11890;45.380;11.028;2022-08-27T09:02:08;28.40;99.90
23435;DHT22;11890;45.380;11.028;2022-08-27T09:04:41;27.90;99.90
23435;DHT22;11890;45.380;11.028;2022-08-27T09:07:19;27.60;99.90
23435;DHT22;11890;45.380;11.028;2022-08-27T09:12:45;27.10;99.90
23435;DHT22;11890;45.380;11.028;2022-08-27T09:15:19;26.70;99.90
23435;DHT22;11890;45.380;11.028;2022-08-27T09:17:48;26.40;99.90
23435;DHT22;11890;45.380;11.028;2022-08-27T09:20:19;26.20;99.90
23435;DHT22;11890;45.380;11.028;2022-08-27T09:23:09;26.00;99.90
23435;DHT22;11890;45.380;11.028;2022-08-27T09:25:41;25.80;99.90
23435;DHT22;11890;45.380;11.028;2022-08-27T09:28:12;25.70;99.90
23435;DHT22;11890;45.380;11.028;2022-08-27T09:31:05;25.70;99.90
23435;DHT22;11890;45.380;11.028;2022-08-27T09:33:33;25.40;99.90
23435;DHT22;11890;45.380;11.028;2022-08-27T09:36:21;25.30;99.90
23435;DHT22;11890;45.380;11.028;2022-08-27T09:39:03;25.30;99.90
23435;DHT22;11890;45.380;11.028;2022-08-27T09:41:38;25.10;99.90
23435;DHT22;11890;45.380;11.028;2022-08-27T09:44:10;24.80;99.90
23435;DHT22;11890;45.380;11.028;2022-08-27T09:46:39;24.60;99.90
23435;DHT22;11890;45.380;11.028;2022-08-27T09:49:17;24.50;99.90
23435;DHT22;11890;45.380;11.028;2022-08-27T09:51:46;24.30;99.90
23435;DHT22;11890;45.380;11.028;2022-08-27T09:56:54;24.00;99.90
23435;DHT22;11890;45.380;11.028;2022-08-27T09:59:35;24.20;99.90
23435;DHT22;11890;45.380;11.028;2022-08-27T10:02:19;24.20;99.90
23435;DHT22;11890;45.380;11.028;2022-08-27T10:04:52;24.20;99.90
23435;DHT22;11890;45.380;11.028;2022-08-27T10:07:38;24.20;99.90
23435;DHT22;11890;45.380;11.028;2022-08-27T10:10:19;24.30;99.90
23435;DHT22;11890;45.380;11.028;2022-08-27T10:13:04;24.30;99.90
23435;DHT22;11890;45.380;11.028;2022-08-27T10:15:44;24.10;99.90
23435;DHT22;11890;45.380;11.028;2022-08-27T10:21:23;23.80;99.90
23435;DHT22;11890;45.380;11.028;2022-08-27T10:27:12;23.70;99.90
23435;DHT22;11890;45.380;11.028;2022-08-27T10:30:04;23.70;99.90
23435;DHT22;11890;45.380;11.028;2022-08-27T10:35:16;23.70;99.90
23435;DHT22;11890;45.380;11.028;2022-08-27T10:37:56;23.70;99.90
23435;DHT22;11890;45.380;11.028;2022-08-27T10:40:48;23.70;99.90
23435;DHT22;11890;45.380;11.028;2022-08-27T10:43:35;23.70;99.90
23435;DHT22;11890;45.380;11.028;2022-08-27T10:49:24;23.70;99.90
23435;DHT22;11890;45.380;11.028;2022-08-27T10:52:03;23.70;99.90
23435;DHT22;11890;45.380;11.028;2022-08-27T10:54:38;23.70;99.90
23435;DHT22;11890;45.380;11.028;2022-08-27T10:57:25;23.70;99.90
23435;DHT22;11890;45.380;11.028;2022-08-27T11:00:21;23.70;99.90
23435;DHT22;11890;45.380;11.028;2022-08-27T11:02:55;23.80;99.90
23435;DHT22;11890;45.380;11.028;2022-08-27T11:05:35;23.70;99.90
23435;DHT22;11890;45.380;11.028;2022-08-27T11:08:26;23.80;99.90
23435;DHT22;11890;45.380;11.028;2022-08-27T11:10:58;23.70;99.90
23435;DHT22;11890;45.380;11.028;2022-08-27T11:13:49;23.80;99.90
23435;DHT22;11890;45.380;11.028;2022-08-27T11:16:45;23.80;99.90
23435;DHT22;11890;45.380;11.028;2022-08-27T11:19:22;23.90;99.90
23435;DHT22;11890;45.380;11.028;2022-08-27T11:22:12;23.90;99.90
23435;DHT22;11890;45.380;11.028;2022-08-27T11:24:58;23.90;99.90
23435;DHT22;11890;45.380;11.028;2022-08-27T11:27:28;23.80;99.90
23435;DHT22;11890;45.380;11.028;2022-08-27T11:33:03;23.70;99.90
23435;DHT22;11890;45.380;11.028;2022-08-27T11:38:53;23.30;99.90
23435;DHT22;11890;45.380;11.028;2022-08-27T11:44:16;23.10;99.90
23435;DHT22;11890;45.380;11.028;2022-08-27T11:46:49;23.20;99.90
23435;DHT22;11890;45.380;11.028;2022-08-27T11:49:32;23.20;99.90
23435;DHT22;11890;45.380;11.028;2022-08-27T11:52:04;23.20;99.90
23435;DHT22;11890;45.380;11.028;2022-08-27T11:54:50;23.30;99.90
23435;DHT22;11890;45.380;11.028;2022-08-27T11:59:53;23.20;99.90
23435;DHT22;11890;45.380;11.028;2022-08-27T12:02:26;23.10;99.90
23435;DHT22;11890;45.380;11.028;2022-08-27T12:05:05;23.00;99.90
23435;DHT22;11890;45.380;11.028;2022-08-27T12:07:35;23.10;99.90
23435;DHT22;11890;45.380;11.028;2022-08-27T12:10:48;23.00;99.90
23435;DHT22;11890;45.380;11.028;2022-08-27T12:13:40;23.00;99.90
23435;DHT22;11890;45.380;11.028;2022-08-27T12:26:38;23.10;99.90
23435;DHT22;11890;45.380;11.028;2022-08-27T12:31:54;23.00;99.90
23435;DHT22;11890;45.380;11.028;2022-08-27T12:34:26;23.00;99.90
23435;DHT22;11890;45.380;11.028;2022-08-27T12:36:55;22.90;99.90
23435;DHT22;11890;45.380;11.028;2022-08-27T12:39:27;22.70;99.90
23435;DHT22;11890;45.380;11.028;2022-08-27T12:41:55;22.70;99.90
23435;DHT22;11890;45.380;11.028;2022-08-27T12:44:26;22.80;99.90
23435;DHT22;11890;45.380;11.028;2022-08-27T12:47:02;22.90;99.90
23435;DHT22;11890;45.380;11.028;2022-08-27T12:49:44;23.00;99.90
23435;DHT22;11890;45.380;11.028;2022-08-27T12:55:44;23.10;99.90
23435;DHT22;11890;45.380;11.028;2022-08-27T13:01:23;23.10;99.90
23435;DHT22;11890;45.380;11.028;2022-08-27T13:03:55;23.10;99.90
23435;DHT22;11890;45.380;11.028;2022-08-27T13:06:32;23.10;99.90
23435;DHT22;11890;45.380;11.028;2022-08-27T13:09:03;23.10;99.90
23435;DHT22;11890;45.380;11.028;2022-08-27T13:11:41;23.10;99.90
23435;DHT22;11890;45.380;11.028;2022-08-27T13:14:15;23.20;99.90
23435;DHT22;11890;45.380;11.028;2022-08-27T13:16:45;23.30;99.90
23435;DHT22;11890;45.380;11.028;2022-08-27T13:19:35;23.30;99.90
23435;DHT22;11890;45.380;11.028;2022-08-27T13:22:04;23.40;99.90
23435;DHT22;11890;45.380;11.028;2022-08-27T13:24:44;23.50;99.90
23435;DHT22;11890;45.380;11.028;2022-08-27T13:27:12;23.60;99.90
23435;DHT22;11890;45.380;11.028;2022-08-27T13:29:40;23.70;99.90
23435;DHT22;11890;45.380;11.028;2022-08-27T13:32:10;23.80;99.90
23435;DHT22;11890;45.380;11.028;2022-08-27T13:34:40;24.00;99.90
23435;DHT22;11890;45.380;11.028;2022-08-27T13:37:42;24.10;99.90
23435;DHT22;11890;45.380;11.028;2022-08-27T13:40:26;24.20;99.90
23435;DHT22;11890;45.380;11.028;2022-08-27T13:43:02;24.30;99.90
23435;DHT22;11890;45.380;11.028;2022-08-27T13:45:37;24.20;99.90
23435;DHT22;11890;45.380;11.028;2022-08-27T13:48:06;24.30;99.90
23435;DHT22;11890;45.380;11.028;2022-08-27T13:50:35;24.40;99.90
23435;DHT22;11890;45.380;11.028;2022-08-27T13:53:06;24.40;99.90
23435;DHT22;11890;45.380;11.028;2022-08-27T13:55:56;24.50;99.90
23435;DHT22;11890;45.380;11.028;2022-08-27T13:58:28;24.50;99.90
23435;DHT22;11890;45.380;11.028;2022-08-27T14:01:15;24.50;99.90
23435;DHT22;11890;45.380;11.028;2022-08-27T14:03:54;24.50;99.90
23435;DHT22;11890;45.380;11.028;2022-08-27T14:06:27;24.60;99.90
23435;DHT22;11890;45.380;11.028;2022-08-27T14:09:23;24.60;99.90
23435;DHT22;11890;45.380;11.028;2022-08-27T14:12:04;24.70;99.90
23435;DHT22;11890;45.380;11.028;2022-08-27T14:14:38;24.80;99.90
23435;DHT22;11890;45.380;11.028;2022-08-27T14:17:26;24.90;99.90
23435;DHT22;11890;45.380;11.028;2022-08-27T14:20:00;24.90;99.90
23435;DHT22;11890;45.380;11.028;2022-08-27T14:22:28;24.90;99.90
23435;DHT22;11890;45.380;11.028;2022-08-27T14:24:55;25.00;99.90
23435;DHT22;11890;45.380;11.028;2022-08-27T14:27:23;25.00;99.90
23435;DHT22;11890;45.380;11.028;2022-08-27T14:29:50;25.00;99.90
23435;DHT22;11890;45.380;11.028;2022-08-27T14:32:18;25.00;99.90
23435;DHT22;11890;45.380;11.028;2022-08-27T14:34:47;25.10;99.90
23435;DHT22;11890;45.380;11.028;2022-08-27T14:37:14;25.20;99.90
23435;DHT22;11890;45.380;11.028;2022-08-27T14:39:43;25.20;99.90
23435;DHT22;11890;45.380;11.028;2022-08-27T14:42:11;25.10;99.90
23435;DHT22;11890;45.380;11.028;2022-08-27T14:44:38;25.20;99.90
23435;DHT22;11890;45.380;11.028;2022-08-27T14:47:08;25.20;99.90
23435;DHT22;11890;45.380;11.028;2022-08-27T14:49:38;25.20;99.90
23435;DHT22;11890;45.380;11.028;2022-08-27T14:52:07;25.20;99.90
23435;DHT22;11890;45.380;11.028;2022-08-27T14:54:36;25.20;99.90
23435;DHT22;11890;45.380;11.028;2022-08-27T14:57:06;25.20;99.90
23435;DHT22;11890;45.380;11.028;2022-08-27T14:59:34;25.20;99.90
23435;DHT22;11890;45.380;11.028;2022-08-27T15:02:05;25.20;99.90
23435;DHT22;11890;45.380;11.028;2022-08-27T15:04:34;25.20;99.90
23435;DHT22;11890;45.380;11.028;2022-08-27T15:07:03;25.20;99.90
23435;DHT22;11890;45.380;11.028;2022-08-27T15:09:30;25.20;99.90
23435;DHT22;11890;45.380;11.028;2022-08-27T15:11:58;25.10;99.90
23435;DHT22;11890;45.380;11.028;2022-08-27T15:14:28;25.20;99.90
23435;DHT22;11890;45.380;11.028;2022-08-27T15:16:58;25.20;99.90
23435;DHT22;11890;45.380;11.028;2022-08-27T15:19:27;25.20;99.90
23435;DHT22;11890;45.380;11.028;2022-08-27T15:22:04;25.30;99.90
23435;DHT22;11890;45.380;11.028;2022-08-27T15:24:46;25.30;99.90
23435;DHT22;11890;45.380;11.028;2022-08-27T15:27:14;25.40;99.90
23435;DHT22;11890;45.380;11.028;2022-08-27T15:29:42;25.40;99.90
23435;DHT22;11890;45.380;11.028;2022-08-27T15:32:20;25.40;99.90
23435;DHT22;11890;45.380;11.028;2022-08-27T15:34:55;25.40;99.90
23435;DHT22;11890;45.380;11.028;2022-08-27T15:37:23;25.40;99.90
23435;DHT22;11890;45.380;11.028;2022-08-27T15:39:51;25.50;99.90
23435;DHT22;11890;45.380;11.028;2022-08-27T15:42:18;25.50;99.90
23435;DHT22;11890;45.380;11.028;2022-08-27T15:44:50;25.50;99.90
23435;DHT22;11890;45.380;11.028;2022-08-27T15:47:18;25.50;99.90
23435;DHT22;11890;45.380;11.028;2022-08-27T15:49:46;25.40;99.90
23435;DHT22;11890;45.380;11.028;2022-08-27T15:52:16;25.50;99.90
23435;DHT22;11890;45.380;11.028;2022-08-27T15:54:45;25.50;99.90
23435;DHT22;11890;45.380;11.028;2022-08-27T15:57:15;25.50;99.90
23435;DHT22;11890;45.380;11.028;2022-08-27T15:59:42;25.60;99.90
23435;DHT22;11890;45.380;11.028;2022-08-27T16:02:19;25.70;99.90
23435;DHT22;11890;45.380;11.028;2022-08-27T16:04:47;25.70;99.90
23435;DHT22;11890;45.380;11.028;2022-08-27T16:07:16;25.70;99.90
23435;DHT22;11890;45.380;11.028;2022-08-27T16:09:47;25.70;99.90
23435;DHT22;11890;45.380;11.028;2022-08-27T16:12:15;25.70;99.90
23435;DHT22;11890;45.380;11.028;2022-08-27T16:14:54;25.70;99.90
23435;DHT22;11890;45.380;11.028;2022-08-27T16:17:22;25.70;99.90
23435;DHT22;11890;45.380;11.028;2022-08-27T16:19:51;25.70;99.90
23435;DHT22;11890;45.380;11.028;2022-08-27T16:22:18;25.70;99.90
23435;DHT22;11890;45.380;11.028;2022-08-27T16:24:46;25.70;99.90
23435;DHT22;11890;45.380;11.028;2022-08-27T16:27:13;25.70;99.90
23435;DHT22;11890;45.380;11.028;2022-08-27T16:29:40;25.70;99.90
23435;DHT22;11890;45.380;11.028;2022-08-27T16:32:13;25.70;99.90
23435;DHT22;11890;45.380;11.028;2022-08-27T16:34:42;25.80;99.90
23435;DHT22;11890;45.380;11.028;2022-08-27T16:37:10;25.80;99.90
23435;DHT22;11890;45.380;11.028;2022-08-27T16:39:38;25.80;99.90